sensor_id;sensor_type;location;lat;lon;timestamp;P1;durP1;ratioP1;P2;durP2;ratioP2
2928;SDS011;1474;51.460;7.150;2023-07-30T05:08:12;10.27;;;2.45;;
2928;SDS011;1474;51.460;7.150;2023-07-30T05:10:38;7.07;;;2.22;;
2928;SDS011;1474;51.460;7.150;2023-07-30T05:13:04;6.00;;;2.70;;
2928;SDS011;1474;51.460;7.150;2023-07-30T05:15:29;4.85;;;2.05;;
2928;SDS011;1474;51.460;7.150;2023-07-30T05:17:55;8.60;;;2.47;;
2928;SDS011;1474;51.460;7.150;2023-07-30T05:20:21;5.30;;;2.45;;
2928;SDS011;1474;51.460;7.150;2023-07-30T05:22:47;5.50;;;2.40;;
2928;SDS011;1474;51.460;7.150;2023-07-30T05:25:12;6.40;;;2.28;;
2928;SDS011;1474;51.460;7.150;2023-07-30T05:27:38;7.20;;;2.00;;
2928;SDS011;1474;51.460;7.150;2023-07-30T05:30:04;6.80;;;2.00;;
2928;SDS011;1474;51.460;7.150;2023-07-30T05:32:31;7.50;;;2.63;;
2928;SDS011;1474;51.460;7.150;2023-07-30T05:34:57;6.35;;;2.30;;
2928;SDS011;1474;51.460;7.150;2023-07-30T05:37:23;6.60;;;2.60;;
2928;SDS011;1474;51.460;7.150;2023-07-30T05:39:49;4.80;;;2.25;;
2928;SDS011;1474;51.460;7.150;2023-07-30T05:42:14;8.68;;;2.17;;
2928;SDS011;1474;51.460;7.150;2023-07-30T05:44:40;9.75;;;1.92;;
2928;SDS011;1474;51.460;7.150;2023-07-30T05:47:06;8.13;;;2.15;;
2928;SDS011;1474;51.460;7.150;2023-07-30T05:49:32;4.90;;;1.90;;
2928;SDS011;1474;51.460;7.150;2023-07-30T05:51:58;7.57;;;2.33;;
2928;SDS011;1474;51.460;7.150;2023-07-30T05:54:23;10.95;;;2.72;;
2928;SDS011;1474;51.460;7.150;2023-07-30T05:56:49;9.02;;;2.60;;
2928;SDS011;1474;51.460;7.150;2023-07-30T05:59:15;7.95;;;2.50;;
2928;SDS011;1474;51.460;7.150;2023-07-30T06:01:41;6.97;;;2.47;;
2928;SDS011;1474;51.460;7.150;2023-07-30T06:04:06;11.07;;;2.63;;
2928;SDS011;1474;51.460;7.150;2023-07-30T06:06:32;5.80;;;2.15;;
2928;SDS011;1474;51.460;7.150;2023-07-30T06:08:58;6.50;;;2.40;;
2928;SDS011;1474;51.460;7.150;2023-07-30T06:11:24;5.10;;;2.22;;
2928;SDS011;1474;51.460;7.150;2023-07-30T06:13:50;5.45;;;1.90;;
2928;SDS011;1474;51.460;7.150;2023-07-30T06:16:16;5.78;;;1.98;;
2928;SDS011;1474;51.460;7.150;2023-07-30T06:18:45;6.10;;;2.08;;
2928;SDS011;1474;51.460;7.150;2023-07-30T06:21:11;5.07;;;1.90;;
2928;SDS011;1474;51.460;7.150;2023-07-30T06:23:37;10.10;;;2.20;;
2928;SDS011;1474;51.460;7.150;2023-07-30T06:26:02;2.85;;;1.55;;
2928;SDS011;1474;51.460;7.150;2023-07-30T06:28:28;2.20;;;1.48;;
2928;SDS011;1474;51.460;7.150;2023-07-30T06:30:54;8.32;;;2.47;;
2928;SDS011;1474;51.460;7.150;2023-07-30T06:33:20;5.32;;;2.00;;
2928;SDS011;1474;51.460;7.150;2023-07-30T06:35:46;3.25;;;1.65;;
2928;SDS011;1474;51.460;7.150;2023-07-30T06:38:11;4.38;;;1.65;;
2928;SDS011;1474;51.460;7.150;2023-07-30T06:40:37;5.22;;;1.67;;
2928;SDS011;1474;51.460;7.150;2023-07-30T06:43:03;3.65;;;1.60;;
2928;SDS011;1474;51.460;7.150;2023-07-30T06:45:29;3.25;;;1.45;;
2928;SDS011;1474;51.460;7.150;2023-07-30T06:47:55;4.57;;;1.52;;
2928;SDS011;1474;51.460;7.150;2023-07-30T06:50:20;2.33;;;1.42;;
2928;SDS011;1474;51.460;7.150;2023-07-30T06:52:46;5.90;;;1.20;;
2928;SDS011;1474;51.460;7.150;2023-07-30T06:55:12;2.92;;;1.27;;
2928;SDS011;1474;51.460;7.150;2023-07-30T06:57:38;4.00;;;1.75;;
2928;SDS011;1474;51.460;7.150;2023-07-30T07:00:04;4.65;;;1.70;;
2928;SDS011;1474;51.460;7.150;2023-07-30T07:02:31;5.43;;;1.50;;
2928;SDS011;1474;51.460;7.150;2023-07-30T07:04:57;7.88;;;2.00;;
2928;SDS011;1474;51.460;7.150;2023-07-30T07:07:23;5.57;;;1.73;;
2928;SDS011;1474;51.460;7.150;2023-07-30T07:09:49;4.38;;;1.35;;
2928;SDS011;1474;51.460;7.150;2023-07-30T07:12:15;5.55;;;2.00;;
2928;SDS011;1474;51.460;7.150;2023-07-30T07:14:41;9.57;;;1.85;;
2928;SDS011;1474;51.460;7.150;2023-07-30T07:17:08;5.35;;;1.60;;
2928;SDS011;1474;51.460;7.150;2023-07-30T07:19:34;7.32;;;1.63;;
2928;SDS011;1474;51.460;7.150;2023-07-30T07:22:03;5.35;;;1.67;;
2928;SDS011;1474;51.460;7.150;2023-07-30T07:24:29;3.72;;;1.42;;
2928;SDS011;1474;51.460;7.150;2023-07-30T07:26:56;3.85;;;1.73;;
2928;SDS011;1474;51.460;7.150;2023-07-30T07:29:22;6.22;;;1.55;;
2928;SDS011;1474;51.460;7.150;2023-07-30T07:31:48;6.03;;;1.85;;
2928;SDS011;1474;51.460;7.150;2023-07-30T07:34:14;6.78;;;1.58;;
2928;SDS011;1474;51.460;7.150;2023-07-30T07:36:39;8.45;;;1.98;;
2928;SDS011;1474;51.460;7.150;2023-07-30T07:39:05;2.80;;;1.13;;
2928;SDS011;1474;51.460;7.150;2023-07-30T07:41:31;7.25;;;1.90;;
2928;SDS011;1474;51.460;7.150;2023-07-30T07:43:57;8.07;;;1.85;;
2928;SDS011;1474;51.460;7.150;2023-07-30T07:46:23;4.50;;;1.35;;
2928;SDS011;1474;51.460;7.150;2023-07-30T07:48:49;5.70;;;1.80;;
2928;SDS011;1474;51.460;7.150;2023-07-30T07:51:15;9.25;;;1.95;;
2928;SDS011;1474;51.460;7.150;2023-07-30T07:53:41;5.65;;;2.50;;
2928;SDS011;1474;51.460;7.150;2023-07-30T07:56:06;6.28;;;1.90;;
2928;SDS011;1474;51.460;7.150;2023-07-30T07:58:32;2.75;;;1.83;;
2928;SDS011;1474;51.460;7.150;2023-07-30T08:00:58;8.55;;;1.73;;
2928;SDS011;1474;51.460;7.150;2023-07-30T08:03:24;2.70;;;1.63;;
2928;SDS011;1474;51.460;7.150;2023-07-30T08:05:53;6.13;;;2.17;;
2928;SDS011;1474;51.460;7.150;2023-07-30T08:08:19;7.25;;;1.77;;
2928;SDS011;1474;51.460;7.150;2023-07-30T08:10:44;6.22;;;2.05;;
2928;SDS011;1474;51.460;7.150;2023-07-30T08:13:12;5.80;;;2.20;;
2928;SDS011;1474;51.460;7.150;2023-07-30T08:15:39;6.00;;;1.85;;
2928;SDS011;1474;51.460;7.150;2023-07-30T08:18:05;6.18;;;2.13;;
2928;SDS011;1474;51.460;7.150;2023-07-30T08:20:31;6.22;;;2.20;;
2928;SDS011;1474;51.460;7.150;2023-07-30T08:22:57;5.97;;;2.30;;
2928;SDS011;1474;51.460;7.150;2023-07-30T08:25:23;4.50;;;2.35;;
2928;SDS011;1474;51.460;7.150;2023-07-30T08:27:48;3.80;;;2.08;;
2928;SDS011;1474;51.460;7.150;2023-07-30T08:30:14;7.10;;;2.05;;
2928;SDS011;1474;51.460;7.150;2023-07-30T08:32:40;8.25;;;2.55;;
2928;SDS011;1474;51.460;7.150;2023-07-30T08:35:08;5.68;;;2.78;;
2928;SDS011;1474;51.460;7.150;2023-07-30T08:37:34;7.32;;;2.42;;
2928;SDS011;1474;51.460;7.150;2023-07-30T08:40:00;6.40;;;2.22;;
2928;SDS011;1474;51.460;7.150;2023-07-30T08:42:26;5.28;;;2.30;;
2928;SDS011;1474;51.460;7.150;2023-07-30T08:44:52;6.40;;;2.00;;
2928;SDS011;1474;51.460;7.150;2023-07-30T08:47:18;10.68;;;3.00;;
2928;SDS011;1474;51.460;7.150;2023-07-30T08:49:43;6.07;;;2.05;;
2928;SDS011;1474;51.460;7.150;2023-07-30T08:52:09;9.15;;;2.38;;
2928;SDS011;1474;51.460;7.150;2023-07-30T08:54:36;8.35;;;2.25;;
2928;SDS011;1474;51.460;7.150;2023-07-30T08:57:04;7.07;;;2.05;;
2928;SDS011;1474;51.460;7.150;2023-07-30T08:59:42;6.75;;;2.03;;
2928;SDS011;1474;51.460;7.150;2023-07-30T09:02:22;9.50;;;2.63;;
2928;SDS011;1474;51.460;7.150;2023-07-30T09:05:16;7.35;;;2.30;;
2928;SDS011;1474;51.460;7.150;2023-07-30T09:07:42;5.43;;;2.17;;
2928;SDS011;1474;51.460;7.150;2023-07-30T09:10:08;5.97;;;2.67;;
2928;SDS011;1474;51.460;7.150;2023-07-30T09:12:34;8.60;;;2.15;;
2928;SDS011;1474;51.460;7.150;2023-07-30T09:15:01;4.80;;;2.42;;
2928;SDS011;1474;51.460;7.150;2023-07-30T09:17:29;6.22;;;2.20;;
2928;SDS011;1474;51.460;7.150;2023-07-30T09:19:55;8.52;;;2.53;;
2928;SDS011;1474;51.460;7.150;2023-07-30T09:22:24;5.78;;;2.53;;
2928;SDS011;1474;51.460;7.150;2023-07-30T09:25:01;8.07;;;2.10;;
2928;SDS011;1474;51.460;7.150;2023-07-30T09:27:28;6.03;;;1.70;;
2928;SDS011;1474;51.460;7.150;2023-07-30T09:29:55;6.35;;;2.20;;
2928;SDS011;1474;51.460;7.150;2023-07-30T09:32:26;4.80;;;1.90;;
2928;SDS011;1474;51.460;7.150;2023-07-30T09:34:54;5.45;;;1.90;;
2928;SDS011;1474;51.460;7.150;2023-07-30T09:37:20;5.97;;;1.90;;
2928;SDS011;1474;51.460;7.150;2023-07-30T09:39:49;5.32;;;2.33;;
2928;SDS011;1474;51.460;7.150;2023-07-30T09:42:15;8.93;;;2.55;;
2928;SDS011;1474;51.460;7.150;2023-07-30T09:44:41;10.20;;;2.47;;
2928;SDS011;1474;51.460;7.150;2023-07-30T09:47:10;6.75;;;2.30;;
2928;SDS011;1474;51.460;7.150;2023-07-30T09:49:37;6.63;;;1.67;;
2928;SDS011;1474;51.460;7.150;2023-07-30T09:52:04;6.22;;;1.80;;
2928;SDS011;1474;51.460;7.150;2023-07-30T09:54:31;6.82;;;1.98;;
2928;SDS011;1474;51.460;7.150;2023-07-30T09:56:58;3.85;;;2.22;;
2928;SDS011;1474;51.460;7.150;2023-07-30T09:59:24;4.93;;;1.80;;
2928;SDS011;1474;51.460;7.150;2023-07-30T10:01:50;6.57;;;1.70;;
2928;SDS011;1474;51.460;7.150;2023-07-30T10:04:21;6.15;;;1.33;;
2928;SDS011;1474;51.460;7.150;2023-07-30T10:09:27;6.57;;;1.67;;
2928;SDS011;1474;51.460;7.150;2023-07-30T10:11:58;7.40;;;1.45;;
2928;SDS011;1474;51.460;7.150;2023-07-30T10:14:26;6.40;;;1.20;;
2928;SDS011;1474;51.460;7.150;2023-07-30T10:16:54;7.28;;;1.45;;
2928;SDS011;1474;51.460;7.150;2023-07-30T10:19:23;3.97;;;1.20;;
2928;SDS011;1474;51.460;7.150;2023-07-30T10:22:19;2.95;;;1.15;;
2928;SDS011;1474;51.460;7.150;2023-07-30T10:25:01;9.43;;;2.50;;
2928;SDS011;1474;51.460;7.150;2023-07-30T10:27:36;5.60;;;1.60;;
2928;SDS011;1474;51.460;7.150;2023-07-30T10:30:09;3.42;;;1.17;;
2928;SDS011;1474;51.460;7.150;2023-07-30T10:32:41;3.67;;;1.33;;
2928;SDS011;1474;51.460;7.150;2023-07-30T10:35:07;3.33;;;0.93;;
2928;SDS011;1474;51.460;7.150;2023-07-30T10:37:34;4.60;;;1.30;;
2928;SDS011;1474;51.460;7.150;2023-07-30T10:40:00;6.35;;;1.30;;
2928;SDS011;1474;51.460;7.150;2023-07-30T10:42:34;4.82;;;1.40;;
2928;SDS011;1474;51.460;7.150;2023-07-30T10:45:00;5.63;;;2.03;;
2928;SDS011;1474;51.460;7.150;2023-07-30T10:47:27;6.13;;;1.25;;
2928;SDS011;1474;51.460;7.150;2023-07-30T10:49:53;2.28;;;0.85;;
2928;SDS011;1474;51.460;7.150;2023-07-30T10:52:24;3.83;;;1.48;;
2928;SDS011;1474;51.460;7.150;2023-07-30T10:54:51;1.73;;;0.88;;
2928;SDS011;1474;51.460;7.150;2023-07-30T10:57:29;4.85;;;1.30;;
2928;SDS011;1474;51.460;7.150;2023-07-30T10:59:59;2.67;;;1.17;;
2928;SDS011;1474;51.460;7.150;2023-07-30T11:02:25;5.55;;;1.00;;
2928;SDS011;1474;51.460;7.150;2023-07-30T11:04:53;5.47;;;1.27;;
2928;SDS011;1474;51.460;7.150;2023-07-30T11:07:19;4.97;;;1.52;;
2928;SDS011;1474;51.460;7.150;2023-07-30T11:09:45;3.67;;;1.27;;
2928;SDS011;1474;51.460;7.150;2023-07-30T11:12:22;2.70;;;0.82;;
2928;SDS011;1474;51.460;7.150;2023-07-30T11:14:49;6.60;;;1.10;;
2928;SDS011;1474;51.460;7.150;2023-07-30T11:17:18;3.78;;;1.02;;
2928;SDS011;1474;51.460;7.150;2023-07-30T11:19:45;3.97;;;1.17;;
2928;SDS011;1474;51.460;7.150;2023-07-30T11:22:11;3.70;;;1.15;;
2928;SDS011;1474;51.460;7.150;2023-07-30T11:24:37;4.93;;;1.30;;
2928;SDS011;1474;51.460;7.150;2023-07-30T11:27:03;3.60;;;0.80;;
2928;SDS011;1474;51.460;7.150;2023-07-30T11:29:29;5.22;;;1.25;;
2928;SDS011;1474;51.460;7.150;2023-07-30T11:31:56;2.60;;;1.10;;
2928;SDS011;1474;51.460;7.150;2023-07-30T11:34:25;5.13;;;1.38;;
2928;SDS011;1474;51.460;7.150;2023-07-30T11:36:52;1.63;;;0.77;;
2928;SDS011;1474;51.460;7.150;2023-07-30T11:39:23;3.13;;;1.30;;
2928;SDS011;1474;51.460;7.150;2023-07-30T11:41:49;3.78;;;0.77;;
2928;SDS011;1474;51.460;7.150;2023-07-30T11:47:03;6.47;;;1.30;;
2928;SDS011;1474;51.460;7.150;2023-07-30T11:49:29;3.20;;;1.10;;
2928;SDS011;1474;51.460;7.150;2023-07-30T11:52:05;4.32;;;1.08;;
2928;SDS011;1474;51.460;7.150;2023-07-30T11:54:33;5.07;;;1.13;;
2928;SDS011;1474;51.460;7.150;2023-07-30T11:56:59;3.90;;;1.00;;
2928;SDS011;1474;51.460;7.150;2023-07-30T11:59:25;4.53;;;1.80;;
2928;SDS011;1474;51.460;7.150;2023-07-30T12:01:51;3.83;;;0.90;;
2928;SDS011;1474;51.460;7.150;2023-07-30T12:04:17;2.78;;;1.13;;
2928;SDS011;1474;51.460;7.150;2023-07-30T12:06:44;3.70;;;1.10;;
2928;SDS011;1474;51.460;7.150;2023-07-30T12:09:19;5.20;;;1.10;;
2928;SDS011;1474;51.460;7.150;2023-07-30T12:14:27;3.88;;;0.90;;
2928;SDS011;1474;51.460;7.150;2023-07-30T12:17:07;2.85;;;0.85;;
2928;SDS011;1474;51.460;7.150;2023-07-30T12:19:33;1.88;;;0.82;;
2928;SDS011;1474;51.460;7.150;2023-07-30T12:22:01;3.50;;;0.70;;
2928;SDS011;1474;51.460;7.150;2023-07-30T12:24:27;3.50;;;1.05;;
2928;SDS011;1474;51.460;7.150;2023-07-30T12:26:53;3.25;;;1.02;;
2928;SDS011;1474;51.460;7.150;2023-07-30T12:29:19;3.83;;;1.08;;
2928;SDS011;1474;51.460;7.150;2023-07-30T12:31:44;3.40;;;0.90;;
2928;SDS011;1474;51.460;7.150;2023-07-30T12:34:11;4.55;;;1.05;;
2928;SDS011;1474;51.460;7.150;2023-07-30T12:36:38;2.05;;;0.82;;
2928;SDS011;1474;51.460;7.150;2023-07-30T12:39:03;4.70;;;1.00;;
2928;SDS011;1474;51.460;7.150;2023-07-30T12:41:29;4.28;;;0.85;;
2928;SDS011;1474;51.460;7.150;2023-07-30T12:43:56;4.18;;;1.02;;
2928;SDS011;1474;51.460;7.150;2023-07-30T12:46:22;1.95;;;1.13;;
2928;SDS011;1474;51.460;7.150;2023-07-30T12:48:48;3.65;;;1.00;;
2928;SDS011;1474;51.460;7.150;2023-07-30T12:51:14;3.97;;;0.90;;
2928;SDS011;1474;51.460;7.150;2023-07-30T12:53:40;1.63;;;0.70;;
2928;SDS011;1474;51.460;7.150;2023-07-30T12:56:06;2.50;;;1.30;;
2928;SDS011;1474;51.460;7.150;2023-07-30T12:58:32;4.20;;;0.63;;
2928;SDS011;1474;51.460;7.150;2023-07-30T13:00:57;2.42;;;0.82;;
2928;SDS011;1474;51.460;7.150;2023-07-30T13:03:23;3.85;;;0.98;;
2928;SDS011;1474;51.460;7.150;2023-07-30T13:05:49;4.60;;;0.93;;
2928;SDS011;1474;51.460;7.150;2023-07-30T13:08:15;2.42;;;0.45;;
2928;SDS011;1474;51.460;7.150;2023-07-30T13:10:40;2.35;;;0.57;;
2928;SDS011;1474;51.460;7.150;2023-07-30T13:13:06;2.92;;;0.60;;
2928;SDS011;1474;51.460;7.150;2023-07-30T13:15:33;1.60;;;0.50;;
2928;SDS011;1474;51.460;7.150;2023-07-30T13:18:00;3.42;;;0.77;;
2928;SDS011;1474;51.460;7.150;2023-07-30T13:20:25;3.17;;;0.60;;
2928;SDS011;1474;51.460;7.150;2023-07-30T13:22:51;3.40;;;0.60;;
2928;SDS011;1474;51.460;7.150;2023-07-30T13:25:18;2.63;;;0.52;;
2928;SDS011;1474;51.460;7.150;2023-07-30T13:27:45;3.30;;;0.60;;
2928;SDS011;1474;51.460;7.150;2023-07-30T13:30:11;1.55;;;0.80;;
2928;SDS011;1474;51.460;7.150;2023-07-30T13:32:37;3.78;;;0.80;;
2928;SDS011;1474;51.460;7.150;2023-07-30T13:35:02;2.67;;;0.68;;
2928;SDS011;1474;51.460;7.150;2023-07-30T13:37:28;2.35;;;0.52;;
2928;SDS011;1474;51.460;7.150;2023-07-30T13:39:54;2.53;;;0.60;;
2928;SDS011;1474;51.460;7.150;2023-07-30T13:42:20;8.40;;;1.13;;
2928;SDS011;1474;51.460;7.150;2023-07-30T13:44:46;1.50;;;0.77;;
2928;SDS011;1474;51.460;7.150;2023-07-30T13:47:12;4.75;;;1.10;;
2928;SDS011;1474;51.460;7.150;2023-07-30T13:49:37;2.63;;;0.88;;
2928;SDS011;1474;51.460;7.150;2023-07-30T13:52:04;1.88;;;0.63;;
2928;SDS011;1474;51.460;7.150;2023-07-30T13:54:32;2.30;;;0.88;;
2928;SDS011;1474;51.460;7.150;2023-07-30T13:56:58;3.33;;;0.80;;
2928;SDS011;1474;51.460;7.150;2023-07-30T13:59:26;3.95;;;0.75;;
2928;SDS011;1474;51.460;7.150;2023-07-30T14:01:52;9.98;;;1.45;;
2928;SDS011;1474;51.460;7.150;2023-07-30T14:04:21;4.03;;;1.90;;
2928;SDS011;1474;51.460;7.150;2023-07-30T14:06:47;4.25;;;1.20;;
2928;SDS011;1474;51.460;7.150;2023-07-30T14:09:12;3.20;;;1.00;;
2928;SDS011;1474;51.460;7.150;2023-07-30T14:11:38;3.60;;;1.45;;
2928;SDS011;1474;51.460;7.150;2023-07-30T14:14:07;2.95;;;0.80;;
2928;SDS011;1474;51.460;7.150;2023-07-30T14:16:33;5.57;;;0.93;;
2928;SDS011;1474;51.460;7.150;2023-07-30T14:18:59;2.85;;;0.90;;
2928;SDS011;1474;51.460;7.150;2023-07-30T14:21:25;2.22;;;0.70;;
2928;SDS011;1474;51.460;7.150;2023-07-30T14:23:51;1.98;;;0.90;;
2928;SDS011;1474;51.460;7.150;2023-07-30T14:26:16;1.63;;;0.80;;
2928;SDS011;1474;51.460;7.150;2023-07-30T14:28:42;1.48;;;0.75;;
2928;SDS011;1474;51.460;7.150;2023-07-30T14:31:08;1.13;;;0.55;;
2928;SDS011;1474;51.460;7.150;2023-07-30T14:33:34;2.75;;;0.80;;
2928;SDS011;1474;51.460;7.150;2023-07-30T14:36:00;2.88;;;0.77;;
2928;SDS011;1474;51.460;7.150;2023-07-30T14:38:26;2.58;;;0.82;;
2928;SDS011;1474;51.460;7.150;2023-07-30T14:40:52;1.77;;;0.80;;
2928;SDS011;1474;51.460;7.150;2023-07-30T14:43:17;2.17;;;0.93;;
2928;SDS011;1474;51.460;7.150;2023-07-30T14:45:43;2.45;;;0.70;;
2928;SDS011;1474;51.460;7.150;2023-07-30T14:48:09;4.03;;;0.80;;
2928;SDS011;1474;51.460;7.150;2023-07-30T14:50:35;4.50;;;1.17;;
2928;SDS011;1474;51.460;7.150;2023-07-30T14:53:00;3.08;;;1.17;;
2928;SDS011;1474;51.460;7.150;2023-07-30T14:55:26;2.65;;;1.10;;
2928;SDS011;1474;51.460;7.150;2023-07-30T14:57:52;3.25;;;1.30;;
2928;SDS011;1474;51.460;7.150;2023-07-30T15:00:18;4.00;;;0.95;;
2928;SDS011;1474;51.460;7.150;2023-07-30T15:02:43;4.07;;;2.15;;
2928;SDS011;1474;51.460;7.150;2023-07-30T15:05:10;4.35;;;1.00;;
2928;SDS011;1474;51.460;7.150;2023-07-30T15:07:35;1.75;;;0.95;;
2928;SDS011;1474;51.460;7.150;2023-07-30T15:10:01;3.90;;;1.33;;
2928;SDS011;1474;51.460;7.150;2023-07-30T15:12:27;5.60;;;1.48;;
2928;SDS011;1474;51.460;7.150;2023-07-30T15:14:53;3.90;;;1.30;;
2928;SDS011;1474;51.460;7.150;2023-07-30T15:17:19;4.13;;;1.30;;
2928;SDS011;1474;51.460;7.150;2023-07-30T15:19:44;2.63;;;1.00;;
2928;SDS011;1474;51.460;7.150;2023-07-30T15:22:13;3.58;;;1.00;;
2928;SDS011;1474;51.460;7.150;2023-07-30T15:24:39;3.95;;;1.30;;
2928;SDS011;1474;51.460;7.150;2023-07-30T15:27:04;3.03;;;1.15;;
2928;SDS011;1474;51.460;7.150;2023-07-30T15:29:30;3.92;;;1.10;;
2928;SDS011;1474;51.460;7.150;2023-07-30T15:31:56;4.13;;;1.10;;
2928;SDS011;1474;51.460;7.150;2023-07-30T15:34:22;3.00;;;1.58;;
2928;SDS011;1474;51.460;7.150;2023-07-30T15:36:48;2.67;;;0.90;;
2928;SDS011;1474;51.460;7.150;2023-07-30T15:39:13;4.53;;;0.82;;
2928;SDS011;1474;51.460;7.150;2023-07-30T15:41:39;3.95;;;1.17;;
2928;SDS011;1474;51.460;7.150;2023-07-30T15:44:05;2.22;;;0.85;;
2928;SDS011;1474;51.460;7.150;2023-07-30T15:46:31;3.70;;;1.02;;
2928;SDS011;1474;51.460;7.150;2023-07-30T15:48:57;6.50;;;1.48;;
2928;SDS011;1474;51.460;7.150;2023-07-30T15:51:22;2.10;;;0.80;;
2928;SDS011;1474;51.460;7.150;2023-07-30T15:53:50;3.08;;;1.05;;
2928;SDS011;1474;51.460;7.150;2023-07-30T15:56:16;4.25;;;0.90;;
2928;SDS011;1474;51.460;7.150;2023-07-30T15:58:41;3.38;;;1.10;;
2928;SDS011;1474;51.460;7.150;2023-07-30T16:01:07;5.45;;;1.88;;
2928;SDS011;1474;51.460;7.150;2023-07-30T16:03:37;5.23;;;1.10;;
2928;SDS011;1474;51.460;7.150;2023-07-30T16:06:04;3.05;;;1.35;;
2928;SDS011;1474;51.460;7.150;2023-07-30T16:08:31;2.17;;;0.85;;
2928;SDS011;1474;51.460;7.150;2023-07-30T16:11:05;4.63;;;0.93;;
2928;SDS011;1474;51.460;7.150;2023-07-30T16:13:33;3.80;;;1.00;;
2928;SDS011;1474;51.460;7.150;2023-07-30T16:16:12;4.25;;;1.15;;
2928;SDS011;1474;51.460;7.150;2023-07-30T16:18:42;2.13;;;0.65;;
2928;SDS011;1474;51.460;7.150;2023-07-30T16:21:13;2.17;;;0.90;;
2928;SDS011;1474;51.460;7.150;2023-07-30T16:23:39;3.22;;;0.90;;
2928;SDS011;1474;51.460;7.150;2023-07-30T16:26:05;4.50;;;1.10;;
2928;SDS011;1474;51.460;7.150;2023-07-30T16:28:31;5.60;;;0.95;;
2928;SDS011;1474;51.460;7.150;2023-07-30T16:30:57;2.30;;;0.90;;
2928;SDS011;1474;51.460;7.150;2023-07-30T16:33:23;3.25;;;1.02;;
2928;SDS011;1474;51.460;7.150;2023-07-30T16:35:49;2.00;;;0.85;;
2928;SDS011;1474;51.460;7.150;2023-07-30T16:38:16;4.30;;;0.85;;
2928;SDS011;1474;51.460;7.150;2023-07-30T16:40:44;3.78;;;0.70;;
2928;SDS011;1474;51.460;7.150;2023-07-30T16:43:10;2.95;;;0.93;;
2928;SDS011;1474;51.460;7.150;2023-07-30T16:45:36;5.32;;;1.00;;
2928;SDS011;1474;51.460;7.150;2023-07-30T16:48:02;4.72;;;0.95;;
2928;SDS011;1474;51.460;7.150;2023-07-30T16:50:28;3.20;;;0.82;;
2928;SDS011;1474;51.460;7.150;2023-07-30T16:52:54;2.75;;;0.95;;
2928;SDS011;1474;51.460;7.150;2023-07-30T16:55:20;4.75;;;1.65;;
2928;SDS011;1474;51.460;7.150;2023-07-30T16:57:46;1.27;;;0.68;;
2928;SDS011;1474;51.460;7.150;2023-07-30T17:00:12;2.30;;;0.80;;
2928;SDS011;1474;51.460;7.150;2023-07-30T17:02:38;3.92;;;1.25;;
2928;SDS011;1474;51.460;7.150;2023-07-30T17:05:04;2.60;;;0.90;;
2928;SDS011;1474;51.460;7.150;2023-07-30T17:07:30;3.78;;;1.00;;
2928;SDS011;1474;51.460;7.150;2023-07-30T17:09:57;2.20;;;1.30;;
2928;SDS011;1474;51.460;7.150;2023-07-30T17:12:23;4.43;;;1.13;;
2928;SDS011;1474;51.460;7.150;2023-07-30T17:14:49;7.22;;;1.25;;
2928;SDS011;1474;51.460;7.150;2023-07-30T17:17:15;2.22;;;0.50;;
2928;SDS011;1474;51.460;7.150;2023-07-30T17:19:41;3.58;;;1.05;;
2928;SDS011;1474;51.460;7.150;2023-07-30T17:22:07;3.75;;;1.20;;
2928;SDS011;1474;51.460;7.150;2023-07-30T17:24:34;4.78;;;1.52;;
2928;SDS011;1474;51.460;7.150;2023-07-30T17:27:00;4.40;;;1.17;;
2928;SDS011;1474;51.460;7.150;2023-07-30T17:29:26;3.42;;;1.00;;
2928;SDS011;1474;51.460;7.150;2023-07-30T17:31:51;2.15;;;0.98;;
2928;SDS011;1474;51.460;7.150;2023-07-30T17:34:20;4.50;;;1.08;;
2928;SDS011;1474;51.460;7.150;2023-07-30T17:36:46;3.15;;;1.17;;
2928;SDS011;1474;51.460;7.150;2023-07-30T17:39:12;2.78;;;0.95;;
2928;SDS011;1474;51.460;7.150;2023-07-30T17:41:38;3.40;;;1.08;;
2928;SDS011;1474;51.460;7.150;2023-07-30T17:44:04;2.67;;;0.80;;
2928;SDS011;1474;51.460;7.150;2023-07-30T17:46:30;2.00;;;0.80;;
2928;SDS011;1474;51.460;7.150;2023-07-30T17:48:55;2.72;;;1.05;;
2928;SDS011;1474;51.460;7.150;2023-07-30T17:51:21;3.22;;;0.93;;
2928;SDS011;1474;51.460;7.150;2023-07-30T17:53:47;2.30;;;0.70;;
2928;SDS011;1474;51.460;7.150;2023-07-30T17:56:13;3.90;;;1.13;;
2928;SDS011;1474;51.460;7.150;2023-07-30T17:58:41;4.40;;;1.60;;
2928;SDS011;1474;51.460;7.150;2023-07-30T18:01:07;2.10;;;0.82;;
2928;SDS011;1474;51.460;7.150;2023-07-30T18:03:34;7.38;;;1.10;;
2928;SDS011;1474;51.460;7.150;2023-07-30T18:06:01;3.65;;;0.95;;
2928;SDS011;1474;51.460;7.150;2023-07-30T18:08:28;6.00;;;1.33;;
2928;SDS011;1474;51.460;7.150;2023-07-30T18:10:54;2.72;;;0.80;;
2928;SDS011;1474;51.460;7.150;2023-07-30T18:13:21;5.43;;;1.20;;
2928;SDS011;1474;51.460;7.150;2023-07-30T18:15:47;2.78;;;0.90;;
2928;SDS011;1474;51.460;7.150;2023-07-30T18:18:13;3.17;;;0.90;;
2928;SDS011;1474;51.460;7.150;2023-07-30T18:20:39;4.18;;;1.27;;
2928;SDS011;1474;51.460;7.150;2023-07-30T18:23:06;3.80;;;1.20;;
2928;SDS011;1474;51.460;7.150;2023-07-30T18:25:31;4.80;;;1.67;;
2928;SDS011;1474;51.460;7.150;2023-07-30T18:27:58;1.27;;;0.73;;
2928;SDS011;1474;51.460;7.150;2023-07-30T18:30:24;4.28;;;0.88;;
2928;SDS011;1474;51.460;7.150;2023-07-30T18:32:53;1.52;;;0.70;;
2928;SDS011;1474;51.460;7.150;2023-07-30T18:35:19;2.50;;;1.15;;
2928;SDS011;1474;51.460;7.150;2023-07-30T18:37:44;5.13;;;2.08;;
2928;SDS011;1474;51.460;7.150;2023-07-30T18:40:10;4.22;;;1.60;;
2928;SDS011;1474;51.460;7.150;2023-07-30T18:42:36;4.88;;;1.35;;
2928;SDS011;1474;51.460;7.150;2023-07-30T18:45:04;4.60;;;1.40;;
2928;SDS011;1474;51.460;7.150;2023-07-30T18:47:31;2.47;;;0.98;;
2928;SDS011;1474;51.460;7.150;2023-07-30T18:49:57;3.00;;;1.10;;
2928;SDS011;1474;51.460;7.150;2023-07-30T18:52:22;4.90;;;1.58;;
2928;SDS011;1474;51.460;7.150;2023-07-30T18:54:48;5.85;;;1.33;;
2928;SDS011;1474;51.460;7.150;2023-07-30T18:57:14;2.30;;;1.33;;
2928;SDS011;1474;51.460;7.150;2023-07-30T18:59:40;3.67;;;1.50;;
2928;SDS011;1474;51.460;7.150;2023-07-30T19:02:07;3.58;;;1.13;;
2928;SDS011;1474;51.460;7.150;2023-07-30T19:04:34;1.88;;;1.33;;
2928;SDS011;1474;51.460;7.150;2023-07-30T19:07:00;3.00;;;1.45;;
2928;SDS011;1474;51.460;7.150;2023-07-30T19:09:25;2.88;;;1.45;;
2928;SDS011;1474;51.460;7.150;2023-07-30T19:11:51;2.50;;;1.30;;
2928;SDS011;1474;51.460;7.150;2023-07-30T19:14:17;2.95;;;1.40;;
2928;SDS011;1474;51.460;7.150;2023-07-30T19:16:43;4.40;;;1.55;;
2928;SDS011;1474;51.460;7.150;2023-07-30T19:19:09;3.33;;;1.23;;
2928;SDS011;1474;51.460;7.150;2023-07-30T19:21:35;1.90;;;1.13;;
2928;SDS011;1474;51.460;7.150;2023-07-30T19:24:01;3.22;;;1.58;;
2928;SDS011;1474;51.460;7.150;2023-07-30T19:26:26;3.25;;;1.70;;
2928;SDS011;1474;51.460;7.150;2023-07-30T19:28:52;1.95;;;1.35;;
2928;SDS011;1474;51.460;7.150;2023-07-30T19:31:18;5.88;;;1.38;;
2928;SDS011;1474;51.460;7.150;2023-07-30T19:33:45;4.43;;;1.85;;
2928;SDS011;1474;51.460;7.150;2023-07-30T19:36:11;3.47;;;1.30;;
2928;SDS011;1474;51.460;7.150;2023-07-30T19:38:38;3.42;;;1.23;;
2928;SDS011;1474;51.460;7.150;2023-07-30T19:41:05;5.35;;;1.55;;
2928;SDS011;1474;51.460;7.150;2023-07-30T19:43:34;4.97;;;1.70;;
2928;SDS011;1474;51.460;7.150;2023-07-30T19:46:00;3.67;;;1.30;;
2928;SDS011;1474;51.460;7.150;2023-07-30T19:48:27;2.63;;;1.65;;
2928;SDS011;1474;51.460;7.150;2023-07-30T19:50:53;2.78;;;1.10;;
2928;SDS011;1474;51.460;7.150;2023-07-30T19:53:19;5.40;;;1.80;;
2928;SDS011;1474;51.460;7.150;2023-07-30T19:55:47;2.42;;;1.55;;
2928;SDS011;1474;51.460;7.150;2023-07-30T22:19:30;4.00;;;2.40;;
2928;SDS011;1474;51.460;7.150;2023-07-30T22:23:46;6.57;;;2.42;;
2928;SDS011;1474;51.460;7.150;2023-07-30T22:26:36;5.70;;;2.35;;
2928;SDS011;1474;51.460;7.150;2023-07-30T22:29:03;3.42;;;2.00;;
2928;SDS011;1474;51.460;7.150;2023-07-30T22:31:32;5.57;;;2.42;;
2928;SDS011;1474;51.460;7.150;2023-07-30T22:33:58;5.15;;;2.55;;
2928;SDS011;1474;51.460;7.150;2023-07-30T22:36:25;5.97;;;2.78;;
2928;SDS011;1474;51.460;7.150;2023-07-30T22:38:51;4.00;;;1.77;;
2928;SDS011;1474;51.460;7.150;2023-07-30T22:41:18;5.72;;;2.35;;
2928;SDS011;1474;51.460;7.150;2023-07-30T22:43:47;4.38;;;2.55;;
2928;SDS011;1474;51.460;7.150;2023-07-30T22:46:13;7.50;;;2.70;;
2928;SDS011;1474;51.460;7.150;2023-07-30T22:48:47;4.68;;;1.80;;
2928;SDS011;1474;51.460;7.150;2023-07-30T22:51:13;6.53;;;3.03;;